sensor_id;sensor_type;location;lat;lon;timestamp;pressure;altitude;pressure_sealevel;temperature;humidity
69624;BME280;56843;52.020;5.670;2023-02-16T00:00:26;102192.97;;;12.06;62.59
69624;BME280;56843;52.020;5.670;2023-02-16T00:01:58;102195.66;;;12.06;62.59
69624;BME280;56843;52.020;5.670;2023-02-16T00:03:29;102196.94;;;12.08;62.66
69624;BME280;56843;52.020;5.670;2023-02-16T00:05:00;102195.84;;;12.09;62.75
69624;BME280;56843;52.020;5.670;2023-02-16T00:06:30;102195.53;;;12.11;62.46
69624;BME280;56843;52.020;5.670;2023-02-16T00:08:01;102191.78;;;12.12;62.90
69624;BME280;56843;52.020;5.670;2023-02-16T00:09:31;102188.78;;;12.13;62.89
69624;BME280;56843;52.020;5.670;2023-02-16T00:11:01;102188.78;;;12.13;62.67
69624;BME280;56843;52.020;5.670;2023-02-16T00:12:51;102188.78;;;12.13;62.66
69624;BME280;56843;52.020;5.670;2023-02-16T00:14:40;102189.91;;;12.12;63.05
69624;BME280;56843;52.020;5.670;2023-02-16T00:16:18;102196.25;;;12.16;62.74
69624;BME280;56843;52.020;5.670;2023-02-16T00:17:49;102195.75;;;12.14;63.08
69624;BME280;56843;52.020;5.670;2023-02-16T00:20:53;102195.94;;;12.18;63.11
69624;BME280;56843;52.020;5.670;2023-02-16T00:22:23;102196.75;;;12.18;63.26
69624;BME280;56843;52.020;5.670;2023-02-16T00:23:54;102204.19;;;12.21;62.90
69624;BME280;56843;52.020;5.670;2023-02-16T00:25:24;102194.53;;;12.20;63.01
69624;BME280;56843;52.020;5.670;2023-02-16T00:26:55;102189.69;;;12.22;62.94
69624;BME280;56843;52.020;5.670;2023-02-16T00:28:26;102193.97;;;12.23;62.96
69624;BME280;56843;52.020;5.670;2023-02-16T00:29:57;102178.69;;;12.24;63.27
69624;BME280;56843;52.020;5.670;2023-02-16T00:31:28;102181.06;;;12.25;63.19
69624;BME280;56843;52.020;5.670;2023-02-16T00:33:01;102185.63;;;12.25;63.32
69624;BME280;56843;52.020;5.670;2023-02-16T00:34:38;102189.59;;;12.27;63.34
69624;BME280;56843;52.020;5.670;2023-02-16T00:36:09;102194.94;;;12.27;63.09
69624;BME280;56843;52.020;5.670;2023-02-16T00:37:40;102185.81;;;12.28;62.85
69624;BME280;56843;52.020;5.670;2023-02-16T00:39:11;102195.44;;;12.29;63.44
69624;BME280;56843;52.020;5.670;2023-02-16T00:40:41;102188.47;;;12.28;63.25
69624;BME280;56843;52.020;5.670;2023-02-16T00:43:47;102187.41;;;12.29;63.15
69624;BME280;56843;52.020;5.670;2023-02-16T00:45:19;102183.34;;;12.32;63.26
69624;BME280;56843;52.020;5.670;2023-02-16T00:46:50;102191.06;;;12.33;63.46
69624;BME280;56843;52.020;5.670;2023-02-16T00:48:22;102191.06;;;12.33;63.16
69624;BME280;56843;52.020;5.670;2023-02-16T00:49:53;102190.78;;;12.35;63.56
69624;BME280;56843;52.020;5.670;2023-02-16T00:51:24;102184.63;;;12.34;63.41
69624;BME280;56843;52.020;5.670;2023-02-16T00:52:55;102179.25;;;12.34;63.33
69624;BME280;56843;52.020;5.670;2023-02-16T00:54:29;102189.50;;;12.32;63.47
69624;BME280;56843;52.020;5.670;2023-02-16T00:55:59;102186.81;;;12.32;63.69
69624;BME280;56843;52.020;5.670;2023-02-16T00:57:33;102181.63;;;12.36;63.69
69624;BME280;56843;52.020;5.670;2023-02-16T00:59:07;102187.78;;;12.36;63.38
69624;BME280;56843;52.020;5.670;2023-02-16T01:00:55;102184.00;;;12.37;63.85
69624;BME280;56843;52.020;5.670;2023-02-16T01:02:27;102189.66;;;12.36;63.90
69624;BME280;56843;52.020;5.670;2023-02-16T01:04:01;102189.34;;;12.37;63.94
69624;BME280;56843;52.020;5.670;2023-02-16T01:05:32;102174.41;;;12.36;63.53
69624;BME280;56843;52.020;5.670;2023-02-16T01:07:10;102171.09;;;12.39;63.82
69624;BME280;56843;52.020;5.670;2023-02-16T01:09:10;102174.41;;;12.36;63.62
69624;BME280;56843;52.020;5.670;2023-02-16T01:11:03;102173.09;;;12.34;63.95
69624;BME280;56843;52.020;5.670;2023-02-16T01:12:37;102171.72;;;12.36;64.04
69624;BME280;56843;52.020;5.670;2023-02-16T01:14:11;102172.50;;;12.37;63.87
69624;BME280;56843;52.020;5.670;2023-02-16T01:15:42;102174.88;;;12.38;63.91
69624;BME280;56843;52.020;5.670;2023-02-16T01:17:12;102177.25;;;12.40;64.05
69624;BME280;56843;52.020;5.670;2023-02-16T01:18:43;102164.66;;;12.40;64.04
69624;BME280;56843;52.020;5.670;2023-02-16T01:20:18;102163.56;;;12.41;63.64
69624;BME280;56843;52.020;5.670;2023-02-16T01:21:49;102163.84;;;12.40;64.04
69624;BME280;56843;52.020;5.670;2023-02-16T01:23:19;102163.56;;;12.41;63.77
69624;BME280;56843;52.020;5.670;2023-02-16T01:24:50;102172.38;;;12.42;63.43
69624;BME280;56843;52.020;5.670;2023-02-16T01:26:21;102165.47;;;12.41;63.62
69624;BME280;56843;52.020;5.670;2023-02-16T01:27:52;102162.78;;;12.41;63.73
69624;BME280;56843;52.020;5.670;2023-02-16T01:29:22;102165.47;;;12.41;63.51
69624;BME280;56843;52.020;5.670;2023-02-16T01:30:53;102173.50;;;12.41;63.74
69624;BME280;56843;52.020;5.670;2023-02-16T01:32:24;102164.34;;;12.42;63.58
69624;BME280;56843;52.020;5.670;2023-02-16T01:33:54;102160.09;;;12.41;63.75
69624;BME280;56843;52.020;5.670;2023-02-16T01:35:30;102159.78;;;12.42;63.67
69624;BME280;56843;52.020;5.670;2023-02-16T01:37:02;102152.34;;;12.39;63.67
69624;BME280;56843;52.020;5.670;2023-02-16T01:38:32;102153.63;;;12.42;63.77
69624;BME280;56843;52.020;5.670;2023-02-16T01:40:03;102148.59;;;12.40;63.35
69624;BME280;56843;52.020;5.670;2023-02-16T01:43:46;102145.09;;;12.40;63.69
69624;BME280;56843;52.020;5.670;2023-02-16T01:45:43;102148.41;;;12.37;63.52
69624;BME280;56843;52.020;5.670;2023-02-16T01:49:04;102146.63;;;12.32;63.48
69624;BME280;56843;52.020;5.670;2023-02-16T01:52:41;102151.50;;;12.30;63.84
69624;BME280;56843;52.020;5.670;2023-02-16T01:54:16;102148.81;;;12.30;63.73
69624;BME280;56843;52.020;5.670;2023-02-16T01:55:56;102144.22;;;12.31;63.62
69624;BME280;56843;52.020;5.670;2023-02-16T01:57:37;102133.50;;;12.31;63.38
69624;BME280;56843;52.020;5.670;2023-02-16T02:03:35;102134.81;;;12.20;63.77
69624;BME280;56843;52.020;5.670;2023-02-16T02:05:26;102136.44;;;12.21;63.86
69624;BME280;56843;52.020;5.670;2023-02-16T02:07:04;102125.41;;;12.22;63.91
69624;BME280;56843;52.020;5.670;2023-02-16T02:10:20;102133.16;;;12.24;63.52
69624;BME280;56843;52.020;5.670;2023-02-16T02:12:02;102125.13;;;12.24;63.59
69624;BME280;56843;52.020;5.670;2023-02-16T02:14:00;102125.41;;;12.22;63.63
69624;BME280;56843;52.020;5.670;2023-02-16T02:15:33;102124.44;;;12.18;63.82
69624;BME280;56843;52.020;5.670;2023-02-16T02:17:11;102124.13;;;12.20;63.60
69624;BME280;56843;52.020;5.670;2023-02-16T02:18:43;102119.66;;;12.15;63.58
69624;BME280;56843;52.020;5.670;2023-02-16T02:22:10;102117.38;;;12.22;63.67
69624;BME280;56843;52.020;5.670;2023-02-16T02:28:26;102117.59;;;12.12;64.02
69624;BME280;56843;52.020;5.670;2023-02-16T02:36:28;102109.56;;;12.12;63.50
69624;BME280;56843;52.020;5.670;2023-02-16T02:38:29;102114.44;;;12.10;64.06
69624;BME280;56843;52.020;5.670;2023-02-16T02:41:49;102116.00;;;12.11;63.81
69624;BME280;56843;52.020;5.670;2023-02-16T02:45:29;102113.81;;;12.13;63.83
69624;BME280;56843;52.020;5.670;2023-02-16T02:47:01;102110.66;;;12.11;63.76
69624;BME280;56843;52.020;5.670;2023-02-16T02:48:33;102112.72;;;12.14;63.89
69624;BME280;56843;52.020;5.670;2023-02-16T02:52:00;102109.25;;;12.14;64.02
69624;BME280;56843;52.020;5.670;2023-02-16T02:53:35;102097.47;;;12.15;64.24
69624;BME280;56843;52.020;5.670;2023-02-16T02:55:07;102096.34;;;12.16;64.35
69624;BME280;56843;52.020;5.670;2023-02-16T02:59:03;102092.09;;;12.15;64.57
69624;BME280;56843;52.020;5.670;2023-02-16T03:00:55;102094.28;;;12.13;64.24
69624;BME280;56843;52.020;5.670;2023-02-16T03:02:27;102092.88;;;12.15;64.42
69624;BME280;56843;52.020;5.670;2023-02-16T03:04:00;102091.50;;;12.18;64.27
69624;BME280;56843;52.020;5.670;2023-02-16T03:05:32;102097.66;;;12.18;64.69
69624;BME280;56843;52.020;5.670;2023-02-16T03:07:05;102094.16;;;12.18;64.53
69624;BME280;56843;52.020;5.670;2023-02-16T03:08:39;102093.09;;;12.19;64.56
69624;BME280;56843;52.020;5.670;2023-02-16T03:10:11;102091.97;;;12.20;64.41
69624;BME280;56843;52.020;5.670;2023-02-16T03:12:01;102097.94;;;12.17;64.64
69624;BME280;56843;52.020;5.670;2023-02-16T03:13:59;102096.06;;;12.17;64.69
69624;BME280;56843;52.020;5.670;2023-02-16T03:15:32;102097.66;;;12.18;64.72
69624;BME280;56843;52.020;5.670;2023-02-16T03:17:07;102090.09;;;12.20;64.65
69624;BME280;56843;52.020;5.670;2023-02-16T03:18:59;102084.25;;;12.18;64.99
69624;BME280;56843;52.020;5.670;2023-02-16T03:20:49;102076.22;;;12.18;64.65
69624;BME280;56843;52.020;5.670;2023-02-16T03:22:39;102073.53;;;12.18;64.43
69624;BME280;56843;52.020;5.670;2023-02-16T03:24:30;102075.41;;;12.18;64.79
69624;BME280;56843;52.020;5.670;2023-02-16T03:26:20;102077.31;;;12.17;64.62
69624;BME280;56843;52.020;5.670;2023-02-16T03:28:12;102076.22;;;12.18;64.76
69624;BME280;56843;52.020;5.670;2023-02-16T03:30:03;102070.88;;;12.18;64.99
69624;BME280;56843;52.020;5.670;2023-02-16T03:31:36;102063.31;;;12.20;64.65
69624;BME280;56843;52.020;5.670;2023-02-16T03:33:08;102068.66;;;12.20;64.90
69624;BME280;56843;52.020;5.670;2023-02-16T03:34:38;102072.94;;;12.21;64.54
69624;BME280;56843;52.020;5.670;2023-02-16T03:36:09;102058.44;;;12.22;64.88
69624;BME280;56843;52.020;5.670;2023-02-16T03:37:41;102069.97;;;12.23;64.94
69624;BME280;56843;52.020;5.670;2023-02-16T03:39:13;102073.72;;;12.22;64.63
69624;BME280;56843;52.020;5.670;2023-02-16T03:40:46;102063.81;;;12.22;64.66
69624;BME280;56843;52.020;5.670;2023-02-16T03:42:19;102070.75;;;12.23;64.80
69624;BME280;56843;52.020;5.670;2023-02-16T03:43:51;102067.28;;;12.23;64.55
69624;BME280;56843;52.020;5.670;2023-02-16T03:45:22;102063.81;;;12.22;64.60
69624;BME280;56843;52.020;5.670;2023-02-16T03:46:59;102063.81;;;12.22;64.92
69624;BME280;56843;52.020;5.670;2023-02-16T03:48:30;102056.88;;;12.21;64.66
69624;BME280;56843;52.020;5.670;2023-02-16T03:50:00;102066.47;;;12.22;64.88
69624;BME280;56843;52.020;5.670;2023-02-16T03:51:31;102067.59;;;12.21;64.75
69624;BME280;56843;52.020;5.670;2023-02-16T03:53:02;102064.13;;;12.21;64.92
69624;BME280;56843;52.020;5.670;2023-02-16T03:54:35;102066.78;;;12.21;64.59
69624;BME280;56843;52.020;5.670;2023-02-16T03:56:06;102063.00;;;12.22;64.73
69624;BME280;56843;52.020;5.670;2023-02-16T03:57:37;102075.63;;;12.21;64.98
69624;BME280;56843;52.020;5.670;2023-02-16T03:59:07;102070.28;;;12.21;64.87
69624;BME280;56843;52.020;5.670;2023-02-16T04:00:38;102070.28;;;12.21;65.01
69624;BME280;56843;52.020;5.670;2023-02-16T04:02:09;102072.16;;;12.21;64.89
69624;BME280;56843;52.020;5.670;2023-02-16T04:03:40;102080.97;;;12.21;64.84
69624;BME280;56843;52.020;5.670;2023-02-16T04:05:10;102081.75;;;12.22;64.86
69624;BME280;56843;52.020;5.670;2023-02-16T04:06:41;102080.19;;;12.21;65.25
69624;BME280;56843;52.020;5.670;2023-02-16T04:08:11;102073.72;;;12.22;65.08
69624;BME280;56843;52.020;5.670;2023-02-16T04:09:42;102081.75;;;12.22;64.79
69624;BME280;56843;52.020;5.670;2023-02-16T04:11:12;102082.56;;;12.22;65.08
69624;BME280;56843;52.020;5.670;2023-02-16T04:13:02;102091.97;;;12.20;64.83
69624;BME280;56843;52.020;5.670;2023-02-16T04:14:32;102093.56;;;12.21;65.27
69624;BME280;56843;52.020;5.670;2023-02-16T04:16:02;102088.22;;;12.21;65.31
69624;BME280;56843;52.020;5.670;2023-02-16T04:17:33;102092.78;;;12.20;65.20
69624;BME280;56843;52.020;5.670;2023-02-16T04:19:04;102092.47;;;12.22;64.93
69624;BME280;56843;52.020;5.670;2023-02-16T04:20:35;102100.00;;;12.20;65.23
69624;BME280;56843;52.020;5.670;2023-02-16T04:22:05;102083.66;;;12.21;65.13
69624;BME280;56843;52.020;5.670;2023-02-16T04:23:36;102093.56;;;12.21;65.17
69624;BME280;56843;52.020;5.670;2023-02-16T04:25:07;102090.09;;;12.20;65.36
69624;BME280;56843;52.020;5.670;2023-02-16T04:26:37;102084.75;;;12.20;64.90
69624;BME280;56843;52.020;5.670;2023-02-16T04:28:08;102077.81;;;12.19;65.05
69624;BME280;56843;52.020;5.670;2023-02-16T04:29:38;102076.69;;;12.20;65.27
69624;BME280;56843;52.020;5.670;2023-02-16T04:31:09;102086.63;;;12.20;65.12
69624;BME280;56843;52.020;5.670;2023-02-16T04:32:39;102087.41;;;12.20;65.32
69624;BME280;56843;52.020;5.670;2023-02-16T04:34:10;102084.75;;;12.20;65.03
69624;BME280;56843;52.020;5.670;2023-02-16T04:35:40;102085.53;;;12.21;65.23
69624;BME280;56843;52.020;5.670;2023-02-16T04:37:11;102087.09;;;12.22;65.10
69624;BME280;56843;52.020;5.670;2023-02-16T04:38:42;102081.75;;;12.22;65.52
69624;BME280;56843;52.020;5.670;2023-02-16T04:40:14;102086.81;;;12.23;65.46
69624;BME280;56843;52.020;5.670;2023-02-16T04:41:45;102078.00;;;12.23;65.59
69624;BME280;56843;52.020;5.670;2023-02-16T04:43:16;102079.88;;;12.22;65.56
69624;BME280;56843;52.020;5.670;2023-02-16T04:44:46;102079.88;;;12.22;65.53
69624;BME280;56843;52.020;5.670;2023-02-16T04:46:17;102083.34;;;12.23;65.60
69624;BME280;56843;52.020;5.670;2023-02-16T04:47:48;102083.84;;;12.25;65.49
69624;BME280;56843;52.020;5.670;2023-02-16T04:49:19;102078.00;;;12.23;65.71
69624;BME280;56843;52.020;5.670;2023-02-16T04:50:50;102076.59;;;12.25;65.89
69624;BME280;56843;52.020;5.670;2023-02-16T04:52:20;102080.06;;;12.26;65.97
69624;BME280;56843;52.020;5.670;2023-02-16T04:53:51;102078.97;;;12.27;65.87
69624;BME280;56843;52.020;5.670;2023-02-16T04:55:21;102075.50;;;12.26;66.00
69624;BME280;56843;52.020;5.670;2023-02-16T04:56:52;102071.72;;;12.27;65.58
69624;BME280;56843;52.020;5.670;2023-02-16T04:58:22;102080.56;;;12.28;66.04
69624;BME280;56843;52.020;5.670;2023-02-16T04:59:53;102086.69;;;12.28;65.68
69624;BME280;56843;52.020;5.670;2023-02-16T05:01:25;102074.41;;;12.27;65.68
69624;BME280;56843;52.020;5.670;2023-02-16T05:02:56;102066.38;;;12.27;65.89
69624;BME280;56843;52.020;5.670;2023-02-16T05:04:26;102063.38;;;12.29;66.05
69624;BME280;56843;52.020;5.670;2023-02-16T05:05:57;102062.59;;;12.28;66.07
69624;BME280;56843;52.020;5.670;2023-02-16T05:07:27;102065.25;;;12.28;66.04
69624;BME280;56843;52.020;5.670;2023-02-16T05:08:58;102066.06;;;12.29;65.92
69624;BME280;56843;52.020;5.670;2023-02-16T05:10:28;102062.59;;;12.28;65.83
69624;BME280;56843;52.020;5.670;2023-02-16T05:11:59;102076.78;;;12.29;66.10
69624;BME280;56843;52.020;5.670;2023-02-16T05:13:48;102077.41;;;12.26;65.98
69624;BME280;56843;52.020;5.670;2023-02-16T05:15:37;102073.91;;;12.25;66.11
69624;BME280;56843;52.020;5.670;2023-02-16T05:18:42;102077.09;;;12.27;66.28
69624;BME280;56843;52.020;5.670;2023-02-16T05:20:13;102070.63;;;12.28;66.00
69624;BME280;56843;52.020;5.670;2023-02-16T05:21:43;102074.09;;;12.29;65.84
69624;BME280;56843;52.020;5.670;2023-02-16T05:23:14;102074.91;;;12.29;65.91
69624;BME280;56843;52.020;5.670;2023-02-16T05:24:44;102063.38;;;12.29;66.30
69624;BME280;56843;52.020;5.670;2023-02-16T05:26:15;102066.53;;;12.31;66.14
69624;BME280;56843;52.020;5.670;2023-02-16T05:27:45;102060.41;;;12.30;65.98
69624;BME280;56843;52.020;5.670;2023-02-16T05:29:16;102060.41;;;12.30;65.83
69624;BME280;56843;52.020;5.670;2023-02-16T05:30:46;102059.63;;;12.30;66.11
69624;BME280;56843;52.020;5.670;2023-02-16T05:32:17;102055.66;;;12.27;65.89
69624;BME280;56843;52.020;5.670;2023-02-16T05:33:47;102064.97;;;12.30;65.82
69624;BME280;56843;52.020;5.670;2023-02-16T05:35:18;102061.50;;;12.29;65.85
69624;BME280;56843;52.020;5.670;2023-02-16T05:36:49;102061.50;;;12.29;65.96
69624;BME280;56843;52.020;5.670;2023-02-16T05:38:19;102068.47;;;12.30;65.87
69624;BME280;56843;52.020;5.670;2023-02-16T05:39:50;102069.53;;;12.29;66.19
69624;BME280;56843;52.020;5.670;2023-02-16T05:41:22;102061.50;;;12.29;66.48
69624;BME280;56843;52.020;5.670;2023-02-16T05:42:55;102053.16;;;12.31;65.97
69624;BME280;56843;52.020;5.670;2023-02-16T05:44:26;102060.41;;;12.30;66.19
69624;BME280;56843;52.020;5.670;2023-02-16T05:45:56;102065.78;;;12.30;66.11
69624;BME280;56843;52.020;5.670;2023-02-16T05:47:27;102061.19;;;12.31;66.45
69624;BME280;56843;52.020;5.670;2023-02-16T05:48:58;102055.06;;;12.30;66.25
69624;BME280;56843;52.020;5.670;2023-02-16T05:50:29;102055.06;;;12.30;66.31
69624;BME280;56843;52.020;5.670;2023-02-16T05:52:02;102060.41;;;12.30;66.28
69624;BME280;56843;52.020;5.670;2023-02-16T05:53:33;102060.41;;;12.30;65.97
69624;BME280;56843;52.020;5.670;2023-02-16T05:55:04;102061.19;;;12.31;66.26
69624;BME280;56843;52.020;5.670;2023-02-16T05:56:34;102065.78;;;12.30;66.13
69624;BME280;56843;52.020;5.670;2023-02-16T05:58:05;102066.84;;;12.29;66.32
69624;BME280;56843;52.020;5.670;2023-02-16T05:59:36;102066.25;;;12.32;66.32
69624;BME280;56843;52.020;5.670;2023-02-16T06:01:06;102051.75;;;12.33;66.41
69624;BME280;56843;52.020;5.670;2023-02-16T06:02:37;102046.72;;;12.32;66.56
69624;BME280;56843;52.020;5.670;2023-02-16T06:04:09;102045.91;;;12.31;66.36
69624;BME280;56843;52.020;5.670;2023-02-16T06:05:40;102052.38;;;12.30;66.07
69624;BME280;56843;52.020;5.670;2023-02-16T06:07:11;102053.16;;;12.31;66.51
69624;BME280;56843;52.020;5.670;2023-02-16T06:08:41;102049.72;;;12.30;66.61
69624;BME280;56843;52.020;5.670;2023-02-16T06:10:12;102049.72;;;12.30;66.42
69624;BME280;56843;52.020;5.670;2023-02-16T06:11:42;102053.94;;;12.31;66.45
69624;BME280;56843;52.020;5.670;2023-02-16T06:13:14;102060.09;;;12.32;66.57
69624;BME280;56843;52.020;5.670;2023-02-16T06:14:44;102063.59;;;12.32;66.45
69624;BME280;56843;52.020;5.670;2023-02-16T06:16:15;102063.59;;;12.32;66.77
69624;BME280;56843;52.020;5.670;2023-02-16T06:17:45;102057.13;;;12.33;66.53
69624;BME280;56843;52.020;5.670;2023-02-16T06:19:17;102061.38;;;12.34;66.49
69624;BME280;56843;52.020;5.670;2023-02-16T06:20:48;102066.75;;;12.34;66.97
69624;BME280;56843;52.020;5.670;2023-02-16T06:22:19;102062.19;;;12.35;66.99
69624;BME280;56843;52.020;5.670;2023-02-16T06:23:50;102057.59;;;12.35;67.06
69624;BME280;56843;52.020;5.670;2023-02-16T06:25:20;102057.59;;;12.35;66.73
69624;BME280;56843;52.020;5.670;2023-02-16T06:26:51;102051.16;;;12.36;66.90
69624;BME280;56843;52.020;5.670;2023-02-16T06:28:21;102043.94;;;12.37;66.83
69624;BME280;56843;52.020;5.670;2023-02-16T06:29:52;102046.59;;;12.37;66.64
69624;BME280;56843;52.020;5.670;2023-02-16T06:31:22;102044.22;;;12.35;67.02
69624;BME280;56843;52.020;5.670;2023-02-16T06:32:54;102046.88;;;12.35;66.67
69624;BME280;56843;52.020;5.670;2023-02-16T06:34:24;102049.56;;;12.35;66.83
69624;BME280;56843;52.020;5.670;2023-02-16T06:35:55;102049.56;;;12.35;66.63
69624;BME280;56843;52.020;5.670;2023-02-16T06:37:25;102056.03;;;12.34;66.46
69624;BME280;56843;52.020;5.670;2023-02-16T06:38:56;102065.63;;;12.35;66.54
69624;BME280;56843;52.020;5.670;2023-02-16T06:40:26;102068.03;;;12.37;66.79
69624;BME280;56843;52.020;5.670;2023-02-16T06:41:57;102069.91;;;12.36;66.74
69624;BME280;56843;52.020;5.670;2023-02-16T06:43:28;102058.09;;;12.37;66.94
69624;BME280;56843;52.020;5.670;2023-02-16T06:44:58;102064.06;;;12.34;65.85
69624;BME280;56843;52.020;5.670;2023-02-16T06:46:29;102069.84;;;12.28;65.35
69624;BME280;56843;52.020;5.670;2023-02-16T06:47:59;102071.97;;;12.17;64.38
69624;BME280;56843;52.020;5.670;2023-02-16T06:49:30;102077.53;;;12.07;63.89
69624;BME280;56843;52.020;5.670;2023-02-16T06:51:00;102077.78;;;11.97;63.69
69624;BME280;56843;52.020;5.670;2023-02-16T06:52:31;102079.84;;;11.87;63.34
69624;BME280;56843;52.020;5.670;2023-02-16T06:54:01;102083.81;;;11.75;62.72
69624;BME280;56843;52.020;5.670;2023-02-16T06:55:32;102076.50;;;11.67;62.56
69624;BME280;56843;52.020;5.670;2023-02-16T06:57:05;102078.59;;;11.57;62.68
69624;BME280;56843;52.020;5.670;2023-02-16T06:58:36;102065.88;;;11.49;62.43
69624;BME280;56843;52.020;5.670;2023-02-16T07:00:07;102070.84;;;11.42;62.31
69624;BME280;56843;52.020;5.670;2023-02-16T07:01:37;102067.47;;;11.36;61.78
69624;BME280;56843;52.020;5.670;2023-02-16T07:03:08;102070.22;;;11.31;61.89
69624;BME280;56843;52.020;5.670;2023-02-16T07:04:39;102071.22;;;11.22;62.01
69624;BME280;56843;52.020;5.670;2023-02-16T07:06:09;102072.03;;;11.22;61.96
69624;BME280;56843;52.020;5.670;2023-02-16T07:07:40;102066.66;;;11.22;62.25
69624;BME280;56843;52.020;5.670;2023-02-16T07:09:11;102065.25;;;11.25;62.27
69624;BME280;56843;52.020;5.670;2023-02-16T07:10:43;102070.81;;;11.28;62.41
69624;BME280;56843;52.020;5.670;2023-02-16T07:12:14;102085.50;;;11.31;62.79
69624;BME280;56843;52.020;5.670;2023-02-16T07:13:45;102070.44;;;11.35;62.41
69624;BME280;56843;52.020;5.670;2023-02-16T07:15:16;102078.38;;;11.40;62.52
69624;BME280;56843;52.020;5.670;2023-02-16T07:16:46;102079.34;;;11.44;62.60
69624;BME280;56843;52.020;5.670;2023-02-16T07:18:16;102070.72;;;11.47;62.58
69624;BME280;56843;52.020;5.670;2023-02-16T07:19:47;102081.34;;;11.52;62.24
69624;BME280;56843;52.020;5.670;2023-02-16T07:21:17;102081.53;;;11.55;62.48
69624;BME280;56843;52.020;5.670;2023-02-16T07:22:48;102069.19;;;11.59;62.40
69624;BME280;56843;52.020;5.670;2023-02-16T07:24:18;102073.91;;;11.62;62.34
69624;BME280;56843;52.020;5.670;2023-02-16T07:25:49;102069.28;;;11.68;62.34
69624;BME280;56843;52.020;5.670;2023-02-16T07:27:19;102067.09;;;11.70;62.10
69624;BME280;56843;52.020;5.670;2023-02-16T07:28:50;102070.75;;;11.74;62.23
69624;BME280;56843;52.020;5.670;2023-02-16T07:30:20;102070.16;;;11.77;62.20
69624;BME280;56843;52.020;5.670;2023-02-16T07:31:51;102066.09;;;11.79;61.97
69624;BME280;56843;52.020;5.670;2023-02-16T07:33:22;102077.78;;;11.84;62.23
69624;BME280;56843;52.020;5.670;2023-02-16T07:34:53;102076.41;;;11.86;61.99
69624;BME280;56843;52.020;5.670;2023-02-16T07:36:23;102081.94;;;11.90;62.18
69624;BME280;56843;52.020;5.670;2023-02-16T07:37:53;102089.38;;;11.93;62.07
69624;BME280;56843;52.020;5.670;2023-02-16T07:39:24;102082.63;;;11.95;61.97
69624;BME280;56843;52.020;5.670;2023-02-16T07:40:56;102092.72;;;11.98;61.97
69624;BME280;56843;52.020;5.670;2023-02-16T07:42:31;102087.84;;;12.00;61.75
69624;BME280;56843;52.020;5.670;2023-02-16T07:44:02;102088.34;;;12.02;62.03
69624;BME280;56843;52.020;5.670;2023-02-16T07:45:33;102094.19;;;12.04;61.69
69624;BME280;56843;52.020;5.670;2023-02-16T07:47:03;102079.41;;;12.07;61.89
69624;BME280;56843;52.020;5.670;2023-02-16T07:48:34;102088.72;;;12.09;61.91
69624;BME280;56843;52.020;5.670;2023-02-16T07:50:05;102083.59;;;12.13;62.03
69624;BME280;56843;52.020;5.670;2023-02-16T07:51:36;102085.63;;;12.16;61.67
69624;BME280;56843;52.020;5.670;2023-02-16T07:53:06;102094.16;;;12.18;61.81
69624;BME280;56843;52.020;5.670;2023-02-16T07:54:37;102100.00;;;12.20;61.89
69624;BME280;56843;52.020;5.670;2023-02-16T07:56:07;102094.38;;;12.21;61.89
69624;BME280;56843;52.020;5.670;2023-02-16T07:57:38;102100.22;;;12.23;61.57
69624;BME280;56843;52.020;5.670;2023-02-16T07:59:09;102098.34;;;12.24;61.95
69624;BME280;56843;52.020;5.670;2023-02-16T08:00:39;102102.28;;;12.26;61.71
69624;BME280;56843;52.020;5.670;2023-02-16T08:02:16;102099.81;;;12.30;61.58
69624;BME280;56843;52.020;5.670;2023-02-16T08:03:47;102096.31;;;12.29;61.50
69624;BME280;56843;52.020;5.670;2023-02-16T08:05:17;102096.00;;;12.31;61.64
69624;BME280;56843;52.020;5.670;2023-02-16T08:06:48;102107.22;;;12.33;61.26
69624;BME280;56843;52.020;5.670;2023-02-16T08:08:18;102109.63;;;12.34;61.51
69624;BME280;56843;52.020;5.670;2023-02-16T08:09:49;102104.25;;;12.34;61.33
69624;BME280;56843;52.020;5.670;2023-02-16T08:11:22;102102.06;;;12.36;61.35
69624;BME280;56843;52.020;5.670;2023-02-16T08:12:53;102104.75;;;12.36;61.12
69624;BME280;56843;52.020;5.670;2023-02-16T08:14:23;102107.09;;;12.38;61.01
69624;BME280;56843;52.020;5.670;2023-02-16T08:15:54;102101.75;;;12.38;61.24
69624;BME280;56843;52.020;5.670;2023-02-16T08:17:24;102109.47;;;12.39;61.13
69624;BME280;56843;52.020;5.670;2023-02-16T08:18:56;102109.47;;;12.39;61.36
69624;BME280;56843;52.020;5.670;2023-02-16T08:20:27;102112.16;;;12.39;61.36
69624;BME280;56843;52.020;5.670;2023-02-16T08:21:59;102110.28;;;12.40;60.92
69624;BME280;56843;52.020;5.670;2023-02-16T08:23:30;102110.28;;;12.40;61.08
69624;BME280;56843;52.020;5.670;2023-02-16T08:25:00;102106.50;;;12.41;61.17
69624;BME280;56843;52.020;5.670;2023-02-16T08:26:39;102111.56;;;12.42;61.26
69624;BME280;56843;52.020;5.670;2023-02-16T08:28:09;102127.94;;;12.41;61.25
69624;BME280;56843;52.020;5.670;2023-02-16T08:29:44;102116.13;;;12.42;61.23
69624;BME280;56843;52.020;5.670;2023-02-16T08:31:19;102119.28;;;12.44;61.39
69624;BME280;56843;52.020;5.670;2023-02-16T08:32:52;102118.53;;;12.43;61.36
69624;BME280;56843;52.020;5.670;2023-02-16T08:34:23;102115.22;;;12.46;61.18
69624;BME280;56843;52.020;5.670;2023-02-16T08:35:54;102121.38;;;12.47;61.12
69624;BME280;56843;52.020;5.670;2023-02-16T08:37:25;102121.06;;;12.48;61.18
69624;BME280;56843;52.020;5.670;2023-02-16T08:38:55;102123.47;;;12.50;61.38
69624;BME280;56843;52.020;5.670;2023-02-16T08:40:25;102119.66;;;12.51;61.37
69624;BME280;56843;52.020;5.670;2023-02-16T08:41:56;102123.94;;;12.52;61.17
69624;BME280;56843;52.020;5.670;2023-02-16T08:43:27;102123.63;;;12.53;61.23